Terminal Aerodrome Forecast
Issued by NWS

Home | Current Version | Previous Version | Text Only | Print | Product List | Glossary On
Versions: 1 2 3 4 5 6 7 8 9 10 11 12 13 14 15 16 17 18 19
000
FTUS43 KICT 032323
TAFHUT
TAF
KHUT 032323Z 0400/0424 05010KT P6SM SCT040
     FM040300 10005KT P6SM SCT040
     FM041000 13007KT P6SM SKC
     FM041500 16010KT P6SM SCT040 BKN200=

USA.gov is the U.S. government's official web portal to all federal, state and local government web resources and services.